sensor_id;sensor_type;location;lat;lon;timestamp;pressure;altitude;pressure_sealevel;temperature;humidity
61963;BME280;47927;42.646;23.096;2023-06-19T00:00:19;92303.72;;;19.42;57.97
61963;BME280;47927;42.646;23.096;2023-06-19T00:02:45;92300.69;;;19.44;57.78
61963;BME280;47927;42.646;23.096;2023-06-19T00:05:12;92301.78;;;19.46;57.07
61963;BME280;47927;42.646;23.096;2023-06-19T00:07:38;92297.63;;;19.45;56.79
61963;BME280;47927;42.646;23.096;2023-06-19T00:10:04;92285.56;;;19.44;56.75
61963;BME280;47927;42.646;23.096;2023-06-19T00:12:32;92287.56;;;19.40;56.99
61963;BME280;47927;42.646;23.096;2023-06-19T00:14:57;92293.16;;;19.42;57.21
61963;BME280;47927;42.646;23.096;2023-06-19T00:17:23;92292.50;;;19.38;57.96
61963;BME280;47927;42.646;23.096;2023-06-19T00:19:52;92294.16;;;19.32;58.12
61963;BME280;47927;42.646;23.096;2023-06-19T00:22:18;92283.25;;;19.30;57.77
61963;BME280;47927;42.646;23.096;2023-06-19T00:24:43;92286.88;;;19.20;58.34
61963;BME280;47927;42.646;23.096;2023-06-19T00:27:09;92269.16;;;19.00;57.69
61963;BME280;47927;42.646;23.096;2023-06-19T00:29:34;92286.50;;;19.01;57.11
61963;BME280;47927;42.646;23.096;2023-06-19T00:32:00;92290.63;;;19.02;56.83
61963;BME280;47927;42.646;23.096;2023-06-19T00:34:28;92287.16;;;19.05;57.90
61963;BME280;47927;42.646;23.096;2023-06-19T00:36:54;92293.97;;;19.23;58.09
61963;BME280;47927;42.646;23.096;2023-06-19T00:39:25;92285.16;;;19.29;58.67
61963;BME280;47927;42.646;23.096;2023-06-19T00:41:51;92280.72;;;19.43;58.67
61963;BME280;47927;42.646;23.096;2023-06-19T00:44:17;92285.25;;;19.42;58.70
61963;BME280;47927;42.646;23.096;2023-06-19T00:46:43;92282.19;;;19.44;58.68
61963;BME280;47927;42.646;23.096;2023-06-19T00:49:08;92287.56;;;19.40;59.27
61963;BME280;47927;42.646;23.096;2023-06-19T00:51:34;92276.25;;;19.40;59.47
61963;BME280;47927;42.646;23.096;2023-06-19T00:54:00;92280.84;;;19.35;59.39
61963;BME280;47927;42.646;23.096;2023-06-19T00:56:26;92276.75;;;19.34;59.16
61963;BME280;47927;42.646;23.096;2023-06-19T00:58:53;92268.47;;;19.32;59.19
61963;BME280;47927;42.646;23.096;2023-06-19T01:01:19;92267.13;;;19.24;59.40
61963;BME280;47927;42.646;23.096;2023-06-19T01:03:46;92269.78;;;19.24;59.07
61963;BME280;47927;42.646;23.096;2023-06-19T01:06:20;92267.56;;;19.23;59.07
61963;BME280;47927;42.646;23.096;2023-06-19T01:09:02;92271.75;;;19.04;59.78
61963;BME280;47927;42.646;23.096;2023-06-19T01:11:35;92268.31;;;18.87;60.53
61963;BME280;47927;42.646;23.096;2023-06-19T01:14:09;92272.03;;;18.89;60.84
61963;BME280;47927;42.646;23.096;2023-06-19T01:16:38;92264.94;;;18.86;60.73
61963;BME280;47927;42.646;23.096;2023-06-19T01:19:05;92261.41;;;18.93;60.75
61963;BME280;47927;42.646;23.096;2023-06-19T01:21:33;92258.34;;;18.95;60.46
61963;BME280;47927;42.646;23.096;2023-06-19T01:23:58;92260.94;;;18.78;60.53
61963;BME280;47927;42.646;23.096;2023-06-19T01:26:24;92261.88;;;18.68;61.02
61963;BME280;47927;42.646;23.096;2023-06-19T01:28:53;92258.22;;;18.62;61.24
61963;BME280;47927;42.646;23.096;2023-06-19T01:31:59;92256.53;;;18.72;60.95
61963;BME280;47927;42.646;23.096;2023-06-19T01:34:25;92244.97;;;18.45;60.88
61963;BME280;47927;42.646;23.096;2023-06-19T01:36:54;92263.97;;;18.37;60.46
61963;BME280;47927;42.646;23.096;2023-06-19T01:39:22;92268.97;;;18.31;60.46
61963;BME280;47927;42.646;23.096;2023-06-19T01:41:48;92261.78;;;18.12;60.73
61963;BME280;47927;42.646;23.096;2023-06-19T01:44:15;92255.16;;;18.04;60.40
61963;BME280;47927;42.646;23.096;2023-06-19T01:46:40;92264.97;;;18.03;60.47
61963;BME280;47927;42.646;23.096;2023-06-19T01:49:07;92270.00;;;17.94;60.39
61963;BME280;47927;42.646;23.096;2023-06-19T01:51:34;92254.44;;;17.80;60.58
61963;BME280;47927;42.646;23.096;2023-06-19T01:53:59;92267.53;;;17.83;60.50
61963;BME280;47927;42.646;23.096;2023-06-19T01:56:25;92267.28;;;17.74;60.64
61963;BME280;47927;42.646;23.096;2023-06-19T01:58:51;92262.38;;;17.76;60.17
61963;BME280;47927;42.646;23.096;2023-06-19T02:01:17;92268.72;;;17.79;59.93
61963;BME280;47927;42.646;23.096;2023-06-19T02:03:42;92265.03;;;17.72;59.85
61963;BME280;47927;42.646;23.096;2023-06-19T02:06:08;92273.06;;;17.65;60.09
61963;BME280;47927;42.646;23.096;2023-06-19T02:08:34;92265.75;;;17.53;60.35
61963;BME280;47927;42.646;23.096;2023-06-19T02:11:00;92269.09;;;17.03;61.92
61963;BME280;47927;42.646;23.096;2023-06-19T02:13:26;92273.97;;;17.01;62.04
61963;BME280;47927;42.646;23.096;2023-06-19T02:15:51;92277.56;;;16.87;62.22
61963;BME280;47927;42.646;23.096;2023-06-19T02:18:17;92274.19;;;16.87;61.89
61963;BME280;47927;42.646;23.096;2023-06-19T02:20:42;92267.13;;;16.80;61.83
61963;BME280;47927;42.646;23.096;2023-06-19T02:23:08;92276.41;;;16.88;61.52
61963;BME280;47927;42.646;23.096;2023-06-19T02:25:34;92271.19;;;16.84;61.04
61963;BME280;47927;42.646;23.096;2023-06-19T02:28:00;92276.50;;;16.81;61.12
61963;BME280;47927;42.646;23.096;2023-06-19T02:30:27;92274.41;;;16.65;61.38
61963;BME280;47927;42.646;23.096;2023-06-19T02:32:52;92279.53;;;16.45;61.60
61963;BME280;47927;42.646;23.096;2023-06-19T02:35:18;92285.25;;;16.36;61.76
61963;BME280;47927;42.646;23.096;2023-06-19T02:37:44;92280.09;;;16.26;62.23
61963;BME280;47927;42.646;23.096;2023-06-19T02:40:11;92281.28;;;16.21;61.81
61963;BME280;47927;42.646;23.096;2023-06-19T02:42:55;92286.59;;;16.14;62.18
61963;BME280;47927;42.646;23.096;2023-06-19T02:45:21;92288.44;;;16.17;61.86
61963;BME280;47927;42.646;23.096;2023-06-19T02:47:47;92283.59;;;16.12;61.61
61963;BME280;47927;42.646;23.096;2023-06-19T02:50:12;92277.78;;;15.93;62.00
61963;BME280;47927;42.646;23.096;2023-06-19T02:52:38;92289.56;;;15.78;62.38
61963;BME280;47927;42.646;23.096;2023-06-19T02:55:04;92288.47;;;15.72;62.53
61963;BME280;47927;42.646;23.096;2023-06-19T02:57:29;92297.50;;;15.71;62.74
61963;BME280;47927;42.646;23.096;2023-06-19T02:59:55;92293.75;;;15.68;62.57
61963;BME280;47927;42.646;23.096;2023-06-19T03:02:20;92297.81;;;15.80;62.33
61963;BME280;47927;42.646;23.096;2023-06-19T03:04:46;92297.88;;;15.69;62.47
61963;BME280;47927;42.646;23.096;2023-06-19T03:07:11;92301.53;;;15.83;62.02
61963;BME280;47927;42.646;23.096;2023-06-19T03:09:39;92302.31;;;15.80;62.05
61963;BME280;47927;42.646;23.096;2023-06-19T03:12:06;92300.44;;;15.80;61.78
61963;BME280;47927;42.646;23.096;2023-06-19T03:14:32;92302.38;;;15.65;62.00
61963;BME280;47927;42.646;23.096;2023-06-19T03:16:57;92300.47;;;15.73;62.19
61963;BME280;47927;42.646;23.096;2023-06-19T03:19:23;92298.91;;;15.79;61.70
61963;BME280;47927;42.646;23.096;2023-06-19T03:21:50;92300.06;;;15.78;61.43
61963;BME280;47927;42.646;23.096;2023-06-19T03:24:16;92289.00;;;15.49;62.35
61963;BME280;47927;42.646;23.096;2023-06-19T03:26:41;92296.88;;;15.49;63.15
61963;BME280;47927;42.646;23.096;2023-06-19T03:29:07;92290.41;;;15.61;62.58
61963;BME280;47927;42.646;23.096;2023-06-19T03:31:49;92289.91;;;15.80;62.56
61963;BME280;47927;42.646;23.096;2023-06-19T03:34:16;92292.44;;;15.91;62.54
61963;BME280;47927;42.646;23.096;2023-06-19T03:36:42;92292.72;;;16.04;62.20
61963;BME280;47927;42.646;23.096;2023-06-19T03:39:09;92288.81;;;16.19;61.74
61963;BME280;47927;42.646;23.096;2023-06-19T03:41:36;92290.91;;;16.35;61.51
61963;BME280;47927;42.646;23.096;2023-06-19T03:44:02;92297.53;;;16.47;61.31
61963;BME280;47927;42.646;23.096;2023-06-19T03:46:27;92290.97;;;16.62;60.93
61963;BME280;47927;42.646;23.096;2023-06-19T03:48:53;92297.75;;;16.63;61.13
61963;BME280;47927;42.646;23.096;2023-06-19T03:51:19;92297.28;;;16.72;61.22
61963;BME280;47927;42.646;23.096;2023-06-19T03:53:45;92290.97;;;16.96;60.91
61963;BME280;47927;42.646;23.096;2023-06-19T03:56:10;92293.13;;;17.32;60.25
61963;BME280;47927;42.646;23.096;2023-06-19T03:58:36;92290.13;;;17.57;59.33
61963;BME280;47927;42.646;23.096;2023-06-19T04:01:02;92296.47;;;17.87;59.02
61963;BME280;47927;42.646;23.096;2023-06-19T04:03:28;92290.28;;;18.20;58.21
61963;BME280;47927;42.646;23.096;2023-06-19T04:05:53;92295.38;;;18.51;56.77
61963;BME280;47927;42.646;23.096;2023-06-19T04:08:19;92296.53;;;18.90;56.01
61963;BME280;47927;42.646;23.096;2023-06-19T04:10:44;92300.91;;;19.17;55.64
61963;BME280;47927;42.646;23.096;2023-06-19T04:13:10;92301.47;;;19.61;54.21
61963;BME280;47927;42.646;23.096;2023-06-19T04:15:36;92304.44;;;19.95;53.08
61963;BME280;47927;42.646;23.096;2023-06-19T04:18:02;92297.53;;;20.31;52.86
61963;BME280;47927;42.646;23.096;2023-06-19T04:20:29;92291.50;;;20.88;51.16
61963;BME280;47927;42.646;23.096;2023-06-19T04:22:55;92287.56;;;21.48;49.55
61963;BME280;47927;42.646;23.096;2023-06-19T04:25:20;92300.75;;;21.99;47.95
61963;BME280;47927;42.646;23.096;2023-06-19T04:27:46;92295.13;;;22.44;47.21
61963;BME280;47927;42.646;23.096;2023-06-19T04:30:11;92281.50;;;22.77;45.67
61963;BME280;47927;42.646;23.096;2023-06-19T04:32:37;92289.59;;;23.17;44.79
61963;BME280;47927;42.646;23.096;2023-06-19T04:35:10;92290.97;;;24.21;43.30
61963;BME280;47927;42.646;23.096;2023-06-19T04:37:35;92295.53;;;25.55;40.10
61963;BME280;47927;42.646;23.096;2023-06-19T04:40:01;92288.22;;;27.00;38.61
61963;BME280;47927;42.646;23.096;2023-06-19T04:42:27;92288.00;;;28.33;35.52
61963;BME280;47927;42.646;23.096;2023-06-19T04:44:52;92285.16;;;29.67;32.95
61963;BME280;47927;42.646;23.096;2023-06-19T04:47:21;92288.94;;;30.30;31.48
61963;BME280;47927;42.646;23.096;2023-06-19T04:49:47;92286.19;;;30.84;30.73
61963;BME280;47927;42.646;23.096;2023-06-19T04:52:12;92289.69;;;31.63;29.03
61963;BME280;47927;42.646;23.096;2023-06-19T04:54:38;92300.44;;;32.08;28.48
61963;BME280;47927;42.646;23.096;2023-06-19T04:57:04;92300.94;;;31.84;28.49
61963;BME280;47927;42.646;23.096;2023-06-19T04:59:30;92302.56;;;30.20;31.02
61963;BME280;47927;42.646;23.096;2023-06-19T05:01:56;92313.09;;;29.23;32.46
61963;BME280;47927;42.646;23.096;2023-06-19T05:04:22;92302.22;;;29.38;32.65
61963;BME280;47927;42.646;23.096;2023-06-19T05:06:48;92301.78;;;29.14;33.55
61963;BME280;47927;42.646;23.096;2023-06-19T05:09:14;92304.22;;;28.91;33.22
61963;BME280;47927;42.646;23.096;2023-06-19T05:11:40;92303.41;;;28.59;33.92
61963;BME280;47927;42.646;23.096;2023-06-19T05:14:06;92310.25;;;28.04;34.49
61963;BME280;47927;42.646;23.096;2023-06-19T05:16:33;92296.41;;;27.70;36.08
61963;BME280;47927;42.646;23.096;2023-06-19T05:18:59;92305.06;;;27.65;35.46
61963;BME280;47927;42.646;23.096;2023-06-19T05:21:25;92303.59;;;28.35;34.69
61963;BME280;47927;42.646;23.096;2023-06-19T05:23:50;92310.03;;;28.43;35.01
61963;BME280;47927;42.646;23.096;2023-06-19T05:26:19;92311.63;;;29.22;33.20
61963;BME280;47927;42.646;23.096;2023-06-19T05:28:44;92307.88;;;30.15;31.48
61963;BME280;47927;42.646;23.096;2023-06-19T05:31:10;92302.25;;;32.58;28.53
61963;BME280;47927;42.646;23.096;2023-06-19T05:33:35;92318.47;;;34.75;25.30
61963;BME280;47927;42.646;23.096;2023-06-19T05:36:01;92318.81;;;36.19;23.42
61963;BME280;47927;42.646;23.096;2023-06-19T05:38:26;92325.41;;;37.25;21.75
61963;BME280;47927;42.646;23.096;2023-06-19T05:40:56;92330.97;;;37.19;21.50
61963;BME280;47927;42.646;23.096;2023-06-19T05:43:21;92331.69;;;38.82;20.43
61963;BME280;47927;42.646;23.096;2023-06-19T05:45:48;92327.94;;;39.36;19.25
61963;BME280;47927;42.646;23.096;2023-06-19T05:48:13;92327.28;;;39.82;19.19
61963;BME280;47927;42.646;23.096;2023-06-19T05:50:39;92332.72;;;40.36;19.22
61963;BME280;47927;42.646;23.096;2023-06-19T05:53:05;92338.53;;;40.24;18.59
61963;BME280;47927;42.646;23.096;2023-06-19T05:55:30;92339.72;;;40.85;17.88
61963;BME280;47927;42.646;23.096;2023-06-19T05:57:56;92337.97;;;40.41;18.04
61963;BME280;47927;42.646;23.096;2023-06-19T06:00:22;92337.28;;;41.04;16.50
61963;BME280;47927;42.646;23.096;2023-06-19T06:02:48;92348.47;;;39.45;17.62
61963;BME280;47927;42.646;23.096;2023-06-19T06:05:14;92350.19;;;40.09;18.30
61963;BME280;47927;42.646;23.096;2023-06-19T06:07:39;92346.75;;;41.03;17.83
61963;BME280;47927;42.646;23.096;2023-06-19T06:10:05;92344.19;;;40.19;17.34
61963;BME280;47927;42.646;23.096;2023-06-19T06:12:34;92345.06;;;40.52;17.50
61963;BME280;47927;42.646;23.096;2023-06-19T06:15:01;92336.63;;;40.81;17.00
61963;BME280;47927;42.646;23.096;2023-06-19T06:17:28;92343.97;;;41.18;16.99
61963;BME280;47927;42.646;23.096;2023-06-19T06:19:53;92350.09;;;40.86;17.67
61963;BME280;47927;42.646;23.096;2023-06-19T06:22:19;92347.03;;;41.63;16.36
61963;BME280;47927;42.646;23.096;2023-06-19T06:24:44;92352.50;;;41.22;16.14
61963;BME280;47927;42.646;23.096;2023-06-19T06:27:12;92354.50;;;41.87;15.58
61963;BME280;47927;42.646;23.096;2023-06-19T06:29:38;92348.97;;;42.97;14.50
61963;BME280;47927;42.646;23.096;2023-06-19T06:32:05;92350.91;;;43.22;15.36
61963;BME280;47927;42.646;23.096;2023-06-19T06:34:32;92346.59;;;41.99;16.24
61963;BME280;47927;42.646;23.096;2023-06-19T06:36:58;92352.91;;;42.52;16.20
61963;BME280;47927;42.646;23.096;2023-06-19T06:39:24;92356.19;;;42.75;15.91
61963;BME280;47927;42.646;23.096;2023-06-19T06:41:49;92364.56;;;42.35;15.64
61963;BME280;47927;42.646;23.096;2023-06-19T06:44:16;92351.97;;;42.92;15.19
61963;BME280;47927;42.646;23.096;2023-06-19T06:46:42;92343.41;;;43.77;13.74
61963;BME280;47927;42.646;23.096;2023-06-19T06:49:07;92352.13;;;43.56;14.22
61963;BME280;47927;42.646;23.096;2023-06-19T06:51:33;92354.28;;;42.95;15.47
61963;BME280;47927;42.646;23.096;2023-06-19T06:53:58;92350.06;;;43.74;14.85
61963;BME280;47927;42.646;23.096;2023-06-19T06:56:24;92352.84;;;44.30;14.69
61963;BME280;47927;42.646;23.096;2023-06-19T06:58:49;92353.16;;;44.34;14.92
61963;BME280;47927;42.646;23.096;2023-06-19T07:01:15;92352.91;;;44.98;13.64
61963;BME280;47927;42.646;23.096;2023-06-19T07:03:41;92351.53;;;44.31;13.87
61963;BME280;47927;42.646;23.096;2023-06-19T07:06:06;92357.94;;;43.97;13.40
61963;BME280;47927;42.646;23.096;2023-06-19T07:08:32;92350.38;;;43.87;14.00
61963;BME280;47927;42.646;23.096;2023-06-19T07:10:57;92351.25;;;44.27;14.97
61963;BME280;47927;42.646;23.096;2023-06-19T07:13:23;92339.66;;;44.19;13.03
61963;BME280;47927;42.646;23.096;2023-06-19T07:15:48;92345.72;;;44.17;13.84
61963;BME280;47927;42.646;23.096;2023-06-19T07:18:14;92349.44;;;42.69;15.50
61963;BME280;47927;42.646;23.096;2023-06-19T07:20:39;92354.47;;;42.20;15.76
61963;BME280;47927;42.646;23.096;2023-06-19T07:23:05;92358.00;;;43.08;13.58
61963;BME280;47927;42.646;23.096;2023-06-19T07:25:31;92356.94;;;43.65;13.20
61963;BME280;47927;42.646;23.096;2023-06-19T07:27:59;92362.63;;;44.23;13.16
61963;BME280;47927;42.646;23.096;2023-06-19T07:30:25;92367.91;;;43.65;13.51
61963;BME280;47927;42.646;23.096;2023-06-19T07:32:51;92355.53;;;44.10;13.45
61963;BME280;47927;42.646;23.096;2023-06-19T07:35:16;92357.69;;;44.68;13.07
61963;BME280;47927;42.646;23.096;2023-06-19T07:37:42;92362.25;;;44.27;12.55
61963;BME280;47927;42.646;23.096;2023-06-19T07:40:08;92364.31;;;43.99;12.88
61963;BME280;47927;42.646;23.096;2023-06-19T07:42:34;92361.28;;;44.51;13.33
61963;BME280;47927;42.646;23.096;2023-06-19T07:44:59;92358.28;;;44.76;12.42
61963;BME280;47927;42.646;23.096;2023-06-19T07:47:26;92364.50;;;45.06;11.50
61963;BME280;47927;42.646;23.096;2023-06-19T07:49:52;92363.25;;;44.31;13.15
61963;BME280;47927;42.646;23.096;2023-06-19T07:52:17;92364.03;;;44.42;12.83
61963;BME280;47927;42.646;23.096;2023-06-19T07:54:57;92376.44;;;44.43;13.82
61963;BME280;47927;42.646;23.096;2023-06-19T07:57:24;92369.09;;;44.08;12.74
61963;BME280;47927;42.646;23.096;2023-06-19T07:59:51;92372.00;;;44.10;12.51
61963;BME280;47927;42.646;23.096;2023-06-19T08:02:17;92360.59;;;44.14;12.83
61963;BME280;47927;42.646;23.096;2023-06-19T08:04:43;92369.84;;;43.82;13.12
61963;BME280;47927;42.646;23.096;2023-06-19T08:07:08;92367.34;;;43.49;12.89
61963;BME280;47927;42.646;23.096;2023-06-19T08:09:34;92367.91;;;42.26;14.45
61963;BME280;47927;42.646;23.096;2023-06-19T08:12:00;92369.34;;;42.27;13.94
61963;BME280;47927;42.646;23.096;2023-06-19T08:14:26;92361.00;;;42.25;13.75
61963;BME280;47927;42.646;23.096;2023-06-19T08:16:52;92364.31;;;41.98;14.47
61963;BME280;47927;42.646;23.096;2023-06-19T08:19:17;92367.44;;;42.20;13.72
61963;BME280;47927;42.646;23.096;2023-06-19T08:21:42;92357.88;;;41.38;13.52
61963;BME280;47927;42.646;23.096;2023-06-19T08:24:08;92360.97;;;41.09;14.23
61963;BME280;47927;42.646;23.096;2023-06-19T08:26:34;92356.19;;;40.46;13.50
61963;BME280;47927;42.646;23.096;2023-06-19T08:28:59;92364.38;;;40.46;16.57
61963;BME280;47927;42.646;23.096;2023-06-19T08:31:25;92373.81;;;40.53;14.97
61963;BME280;47927;42.646;23.096;2023-06-19T08:33:56;92371.63;;;40.59;15.45
61963;BME280;47927;42.646;23.096;2023-06-19T08:36:23;92369.81;;;40.16;14.26
61963;BME280;47927;42.646;23.096;2023-06-19T08:38:48;92376.19;;;39.28;16.05
61963;BME280;47927;42.646;23.096;2023-06-19T08:41:17;92362.09;;;39.53;16.44
61963;BME280;47927;42.646;23.096;2023-06-19T08:43:44;92364.69;;;39.66;15.86
61963;BME280;47927;42.646;23.096;2023-06-19T08:46:12;92359.38;;;39.45;14.61
61963;BME280;47927;42.646;23.096;2023-06-19T08:48:38;92358.13;;;39.61;15.29
61963;BME280;47927;42.646;23.096;2023-06-19T08:51:04;92361.44;;;39.75;15.55
61963;BME280;47927;42.646;23.096;2023-06-19T08:53:36;92356.00;;;39.83;14.90
61963;BME280;47927;42.646;23.096;2023-06-19T08:56:08;92358.13;;;39.54;14.80
61963;BME280;47927;42.646;23.096;2023-06-19T08:58:34;92364.53;;;39.79;15.48
61963;BME280;47927;42.646;23.096;2023-06-19T09:00:59;92364.59;;;39.35;14.76
61963;BME280;47927;42.646;23.096;2023-06-19T09:03:25;92359.34;;;39.37;15.26
61963;BME280;47927;42.646;23.096;2023-06-19T09:05:50;92351.94;;;39.02;15.24
61963;BME280;47927;42.646;23.096;2023-06-19T09:08:17;92361.91;;;38.91;15.74
61963;BME280;47927;42.646;23.096;2023-06-19T09:11:03;92368.84;;;39.08;16.69
61963;BME280;47927;42.646;23.096;2023-06-19T09:13:30;92363.06;;;39.11;15.03
61963;BME280;47927;42.646;23.096;2023-06-19T09:16:07;92368.06;;;38.92;13.58
61963;BME280;47927;42.646;23.096;2023-06-19T09:18:51;92373.25;;;38.25;16.03
61963;BME280;47927;42.646;23.096;2023-06-19T09:21:21;92362.19;;;38.44;15.72
61963;BME280;47927;42.646;23.096;2023-06-19T09:23:50;92366.00;;;38.48;15.53
61963;BME280;47927;42.646;23.096;2023-06-19T09:26:21;92355.72;;;37.63;16.24
61963;BME280;47927;42.646;23.096;2023-06-19T09:28:46;92362.06;;;38.07;15.68
61963;BME280;47927;42.646;23.096;2023-06-19T09:31:15;92356.34;;;37.22;17.61
61963;BME280;47927;42.646;23.096;2023-06-19T09:33:42;92362.25;;;37.68;17.04
61963;BME280;47927;42.646;23.096;2023-06-19T09:36:07;92352.09;;;37.89;17.27
61963;BME280;47927;42.646;23.096;2023-06-19T09:38:37;92360.53;;;37.78;18.33
61963;BME280;47927;42.646;23.096;2023-06-19T09:41:06;92359.31;;;37.66;17.83
61963;BME280;47927;42.646;23.096;2023-06-19T09:43:43;92350.63;;;37.12;17.87
61963;BME280;47927;42.646;23.096;2023-06-19T09:46:10;92354.31;;;37.01;16.64
61963;BME280;47927;42.646;23.096;2023-06-19T09:48:41;92358.03;;;36.18;18.05
61963;BME280;47927;42.646;23.096;2023-06-19T09:53:36;92347.31;;;35.29;19.78
61963;BME280;47927;42.646;23.096;2023-06-19T09:56:02;92346.84;;;34.44;20.27
61963;BME280;47927;42.646;23.096;2023-06-19T09:58:27;92355.47;;;34.42;21.00
61963;BME280;47927;42.646;23.096;2023-06-19T10:00:54;92346.28;;;34.26;18.60
61963;BME280;47927;42.646;23.096;2023-06-19T10:03:20;92342.66;;;34.67;21.38
61963;BME280;47927;42.646;23.096;2023-06-19T10:05:46;92335.84;;;35.23;17.98
61963;BME280;47927;42.646;23.096;2023-06-19T10:08:11;92331.78;;;35.81;18.59
61963;BME280;47927;42.646;23.096;2023-06-19T10:10:46;92339.19;;;35.80;18.60
61963;BME280;47927;42.646;23.096;2023-06-19T10:13:16;92346.50;;;35.99;19.39
61963;BME280;47927;42.646;23.096;2023-06-19T10:15:43;92340.72;;;36.21;19.65
61963;BME280;47927;42.646;23.096;2023-06-19T10:18:14;92341.06;;;36.18;18.96
61963;BME280;47927;42.646;23.096;2023-06-19T10:20:41;92334.72;;;35.96;19.72
61963;BME280;47927;42.646;23.096;2023-06-19T10:25:39;92343.22;;;35.74;18.37
61963;BME280;47927;42.646;23.096;2023-06-19T10:28:19;92339.78;;;35.22;17.79
61963;BME280;47927;42.646;23.096;2023-06-19T10:30:53;92332.97;;;35.34;18.57
61963;BME280;47927;42.646;23.096;2023-06-19T10:33:20;92330.84;;;35.27;20.53
61963;BME280;47927;42.646;23.096;2023-06-19T10:35:45;92330.50;;;35.18;16.38
61963;BME280;47927;42.646;23.096;2023-06-19T10:38:14;92316.94;;;34.61;17.64
61963;BME280;47927;42.646;23.096;2023-06-19T10:40:40;92313.06;;;34.75;20.04
61963;BME280;47927;42.646;23.096;2023-06-19T10:43:05;92322.78;;;34.65;19.49
61963;BME280;47927;42.646;23.096;2023-06-19T10:45:32;92322.44;;;34.00;19.96
61963;BME280;47927;42.646;23.096;2023-06-19T10:48:00;92313.53;;;33.51;21.83
61963;BME280;47927;42.646;23.096;2023-06-19T10:50:28;92320.66;;;34.09;21.59
61963;BME280;47927;42.646;23.096;2023-06-19T10:52:54;92315.38;;;34.22;22.25
61963;BME280;47927;42.646;23.096;2023-06-19T10:55:21;92297.50;;;34.38;21.43
61963;BME280;47927;42.646;23.096;2023-06-19T10:57:47;92319.19;;;33.47;21.07
61963;BME280;47927;42.646;23.096;2023-06-19T11:00:32;92327.59;;;32.91;21.82
61963;BME280;47927;42.646;23.096;2023-06-19T11:02:58;92322.84;;;32.61;21.07
61963;BME280;47927;42.646;23.096;2023-06-19T11:05:26;92324.59;;;32.42;22.05
61963;BME280;47927;42.646;23.096;2023-06-19T11:07:57;92313.00;;;32.70;21.96
61963;BME280;47927;42.646;23.096;2023-06-19T11:10:24;92313.50;;;32.62;23.38
61963;BME280;47927;42.646;23.096;2023-06-19T11:12:54;92309.63;;;32.58;23.07
61963;BME280;47927;42.646;23.096;2023-06-19T11:15:20;92309.09;;;32.59;22.40
61963;BME280;47927;42.646;23.096;2023-06-19T11:17:47;92306.38;;;32.65;21.97
61963;BME280;47927;42.646;23.096;2023-06-19T11:20:13;92308.84;;;33.16;21.85
61963;BME280;47927;42.646;23.096;2023-06-19T11:22:41;92303.66;;;33.23;22.34
61963;BME280;47927;42.646;23.096;2023-06-19T11:25:07;92303.13;;;32.78;22.19
61963;BME280;47927;42.646;23.096;2023-06-19T11:27:33;92305.91;;;33.13;22.38
61963;BME280;47927;42.646;23.096;2023-06-19T11:30:00;92304.97;;;33.05;22.42
61963;BME280;47927;42.646;23.096;2023-06-19T11:32:36;92301.69;;;31.96;22.55
61963;BME280;47927;42.646;23.096;2023-06-19T11:35:08;92302.16;;;32.00;22.64
61963;BME280;47927;42.646;23.096;2023-06-19T11:37:34;92305.09;;;32.08;21.89
61963;BME280;47927;42.646;23.096;2023-06-19T11:40:02;92295.75;;;32.20;20.54
61963;BME280;47927;42.646;23.096;2023-06-19T11:42:48;92295.00;;;32.31;23.15
61963;BME280;47927;42.646;23.096;2023-06-19T11:45:14;92294.31;;;32.13;22.74
61963;BME280;47927;42.646;23.096;2023-06-19T11:47:39;92297.53;;;31.95;23.38
61963;BME280;47927;42.646;23.096;2023-06-19T11:50:06;92302.88;;;32.12;22.88
61963;BME280;47927;42.646;23.096;2023-06-19T11:52:32;92291.56;;;32.25;22.83
61963;BME280;47927;42.646;23.096;2023-06-19T11:54:58;92287.41;;;32.18;23.22
61963;BME280;47927;42.646;23.096;2023-06-19T11:57:24;92300.44;;;32.08;23.36
61963;BME280;47927;42.646;23.096;2023-06-19T11:59:49;92302.00;;;32.56;23.12
61963;BME280;47927;42.646;23.096;2023-06-19T12:02:15;92294.44;;;32.55;21.62
61963;BME280;47927;42.646;23.096;2023-06-19T12:04:40;92298.81;;;32.63;24.38
61963;BME280;47927;42.646;23.096;2023-06-19T12:07:06;92292.91;;;32.65;23.78
61963;BME280;47927;42.646;23.096;2023-06-19T12:09:31;92299.81;;;33.07;22.37
61963;BME280;47927;42.646;23.096;2023-06-19T12:11:58;92293.50;;;32.94;22.36
61963;BME280;47927;42.646;23.096;2023-06-19T12:14:23;92287.69;;;32.78;23.61
61963;BME280;47927;42.646;23.096;2023-06-19T12:16:50;92285.72;;;32.79;22.24
61963;BME280;47927;42.646;23.096;2023-06-19T12:19:15;92278.03;;;32.47;23.55
61963;BME280;47927;42.646;23.096;2023-06-19T12:21:41;92292.50;;;32.33;22.88
61963;BME280;47927;42.646;23.096;2023-06-19T12:24:06;92280.31;;;32.20;23.56
61963;BME280;47927;42.646;23.096;2023-06-19T12:26:34;92288.19;;;32.13;24.52
61963;BME280;47927;42.646;23.096;2023-06-19T12:29:03;92288.19;;;32.13;24.29
61963;BME280;47927;42.646;23.096;2023-06-19T12:31:30;92281.59;;;31.97;23.35
61963;BME280;47927;42.646;23.096;2023-06-19T12:33:56;92278.41;;;31.98;25.34
61963;BME280;47927;42.646;23.096;2023-06-19T12:36:21;92281.28;;;32.17;24.18
61963;BME280;47927;42.646;23.096;2023-06-19T12:38:48;92271.97;;;32.18;24.44
61963;BME280;47927;42.646;23.096;2023-06-19T12:41:14;92280.97;;;32.38;24.66
61963;BME280;47927;42.646;23.096;2023-06-19T12:43:40;92274.94;;;32.09;22.93
61963;BME280;47927;42.646;23.096;2023-06-19T12:46:06;92276.22;;;31.80;25.73
61963;BME280;47927;42.646;23.096;2023-06-19T12:48:32;92276.50;;;31.43;26.03
61963;BME280;47927;42.646;23.096;2023-06-19T12:50:58;92273.72;;;30.86;24.70
61963;BME280;47927;42.646;23.096;2023-06-19T12:53:24;92282.56;;;31.04;23.77